sensor_id;sensor_type;location;lat;lon;timestamp;P1;durP1;ratioP1;P2;durP2;ratioP2
74957;SDS011;63741;42.624;26.276;2024-03-08T00:00:10;19.70;;;12.50;;
74957;SDS011;63741;42.624;26.276;2024-03-08T00:02:43;24.30;;;13.02;;
74957;SDS011;63741;42.624;26.276;2024-03-08T00:05:14;24.92;;;13.15;;
74957;SDS011;63741;42.624;26.276;2024-03-08T00:07:42;23.85;;;13.50;;
74957;SDS011;63741;42.624;26.276;2024-03-08T00:10:11;22.67;;;12.52;;
74957;SDS011;63741;42.624;26.276;2024-03-08T00:12:41;19.08;;;11.88;;
74957;SDS011;63741;42.624;26.276;2024-03-08T00:15:11;20.27;;;11.55;;
74957;SDS011;63741;42.624;26.276;2024-03-08T00:17:42;19.42;;;11.50;;
74957;SDS011;63741;42.624;26.276;2024-03-08T00:20:11;17.55;;;10.77;;
74957;SDS011;63741;42.624;26.276;2024-03-08T00:22:40;18.90;;;10.60;;
74957;SDS011;63741;42.624;26.276;2024-03-08T00:25:08;15.68;;;10.18;;
74957;SDS011;63741;42.624;26.276;2024-03-08T00:27:36;17.05;;;10.10;;
74957;SDS011;63741;42.624;26.276;2024-03-08T00:30:05;16.67;;;10.30;;
74957;SDS011;63741;42.624;26.276;2024-03-08T00:32:33;16.77;;;10.43;;
74957;SDS011;63741;42.624;26.276;2024-03-08T00:35:00;18.08;;;11.13;;
74957;SDS011;63741;42.624;26.276;2024-03-08T00:37:28;17.23;;;10.60;;
74957;SDS011;63741;42.624;26.276;2024-03-08T00:39:55;17.65;;;10.32;;
74957;SDS011;63741;42.624;26.276;2024-03-08T00:42:21;16.83;;;10.00;;
74957;SDS011;63741;42.624;26.276;2024-03-08T00:44:49;16.67;;;10.15;;
74957;SDS011;63741;42.624;26.276;2024-03-08T00:47:18;16.40;;;9.43;;
74957;SDS011;63741;42.624;26.276;2024-03-08T00:49:45;17.67;;;10.05;;
74957;SDS011;63741;42.624;26.276;2024-03-08T00:52:13;17.05;;;9.07;;
74957;SDS011;63741;42.624;26.276;2024-03-08T00:54:41;17.15;;;10.55;;
74957;SDS011;63741;42.624;26.276;2024-03-08T00:57:10;14.57;;;9.75;;
74957;SDS011;63741;42.624;26.276;2024-03-08T00:59:38;16.05;;;9.93;;
74957;SDS011;63741;42.624;26.276;2024-03-08T01:02:05;16.15;;;9.68;;
74957;SDS011;63741;42.624;26.276;2024-03-08T01:04:32;17.25;;;10.02;;
74957;SDS011;63741;42.624;26.276;2024-03-08T01:07:00;14.85;;;9.68;;
74957;SDS011;63741;42.624;26.276;2024-03-08T01:09:27;15.40;;;9.93;;
74957;SDS011;63741;42.624;26.276;2024-03-08T01:11:54;16.70;;;10.10;;
74957;SDS011;63741;42.624;26.276;2024-03-08T01:14:22;15.85;;;9.95;;
74957;SDS011;63741;42.624;26.276;2024-03-08T01:16:52;15.10;;;9.52;;
74957;SDS011;63741;42.624;26.276;2024-03-08T01:19:19;14.90;;;9.48;;
74957;SDS011;63741;42.624;26.276;2024-03-08T01:21:46;15.07;;;9.15;;
74957;SDS011;63741;42.624;26.276;2024-03-08T01:24:13;12.35;;;8.82;;
74957;SDS011;63741;42.624;26.276;2024-03-08T01:26:40;13.82;;;8.80;;
74957;SDS011;63741;42.624;26.276;2024-03-08T01:29:07;18.70;;;10.40;;
74957;SDS011;63741;42.624;26.276;2024-03-08T01:31:34;16.83;;;10.07;;
74957;SDS011;63741;42.624;26.276;2024-03-08T01:34:03;14.05;;;9.57;;
74957;SDS011;63741;42.624;26.276;2024-03-08T01:36:30;16.73;;;10.27;;
74957;SDS011;63741;42.624;26.276;2024-03-08T01:38:57;15.77;;;10.13;;
74957;SDS011;63741;42.624;26.276;2024-03-08T01:41:24;14.88;;;9.73;;
74957;SDS011;63741;42.624;26.276;2024-03-08T01:43:51;15.23;;;9.93;;
74957;SDS011;63741;42.624;26.276;2024-03-08T01:46:19;14.32;;;10.13;;
74957;SDS011;63741;42.624;26.276;2024-03-08T01:48:48;14.95;;;8.82;;
74957;SDS011;63741;42.624;26.276;2024-03-08T01:51:18;14.50;;;9.57;;
74957;SDS011;63741;42.624;26.276;2024-03-08T01:53:46;16.15;;;9.15;;
74957;SDS011;63741;42.624;26.276;2024-03-08T01:56:14;14.15;;;9.45;;
74957;SDS011;63741;42.624;26.276;2024-03-08T01:58:42;14.82;;;9.65;;
74957;SDS011;63741;42.624;26.276;2024-03-08T02:01:14;14.13;;;8.98;;
74957;SDS011;63741;42.624;26.276;2024-03-08T02:03:42;14.23;;;9.52;;
74957;SDS011;63741;42.624;26.276;2024-03-08T02:06:11;15.02;;;9.27;;
74957;SDS011;63741;42.624;26.276;2024-03-08T02:08:44;14.30;;;9.73;;
74957;SDS011;63741;42.624;26.276;2024-03-08T02:11:13;15.57;;;9.77;;
74957;SDS011;63741;42.624;26.276;2024-03-08T02:13:40;15.00;;;9.70;;
74957;SDS011;63741;42.624;26.276;2024-03-08T02:16:08;16.05;;;10.30;;
74957;SDS011;63741;42.624;26.276;2024-03-08T02:18:35;14.30;;;9.63;;
74957;SDS011;63741;42.624;26.276;2024-03-08T02:21:04;14.55;;;9.32;;
74957;SDS011;63741;42.624;26.276;2024-03-08T02:23:36;14.95;;;8.85;;
74957;SDS011;63741;42.624;26.276;2024-03-08T02:26:04;13.52;;;9.45;;
74957;SDS011;63741;42.624;26.276;2024-03-08T02:28:31;15.00;;;9.23;;
74957;SDS011;63741;42.624;26.276;2024-03-08T02:30:59;17.20;;;10.52;;
74957;SDS011;63741;42.624;26.276;2024-03-08T02:33:27;15.48;;;10.35;;
74957;SDS011;63741;42.624;26.276;2024-03-08T02:35:55;17.73;;;10.88;;
74957;SDS011;63741;42.624;26.276;2024-03-08T02:38:23;19.73;;;12.05;;
74957;SDS011;63741;42.624;26.276;2024-03-08T02:40:52;17.33;;;11.07;;
74957;SDS011;63741;42.624;26.276;2024-03-08T02:43:20;16.10;;;10.73;;
74957;SDS011;63741;42.624;26.276;2024-03-08T02:45:51;16.02;;;9.98;;
74957;SDS011;63741;42.624;26.276;2024-03-08T02:48:19;14.35;;;10.20;;
74957;SDS011;63741;42.624;26.276;2024-03-08T02:50:48;15.77;;;9.48;;
74957;SDS011;63741;42.624;26.276;2024-03-08T02:53:18;15.32;;;10.18;;
74957;SDS011;63741;42.624;26.276;2024-03-08T02:55:45;16.25;;;10.20;;
74957;SDS011;63741;42.624;26.276;2024-03-08T02:58:13;15.55;;;10.10;;
74957;SDS011;63741;42.624;26.276;2024-03-08T03:00:41;17.15;;;10.55;;
74957;SDS011;63741;42.624;26.276;2024-03-08T03:03:11;16.40;;;10.90;;
74957;SDS011;63741;42.624;26.276;2024-03-08T03:05:38;17.20;;;11.63;;
74957;SDS011;63741;42.624;26.276;2024-03-08T03:08:12;16.55;;;11.50;;
74957;SDS011;63741;42.624;26.276;2024-03-08T03:10:39;19.90;;;12.00;;
74957;SDS011;63741;42.624;26.276;2024-03-08T03:13:06;18.10;;;11.77;;
74957;SDS011;63741;42.624;26.276;2024-03-08T03:15:35;17.83;;;10.52;;
74957;SDS011;63741;42.624;26.276;2024-03-08T03:18:03;18.13;;;10.68;;
74957;SDS011;63741;42.624;26.276;2024-03-08T03:20:35;16.08;;;10.80;;
74957;SDS011;63741;42.624;26.276;2024-03-08T03:23:11;18.35;;;12.07;;
74957;SDS011;63741;42.624;26.276;2024-03-08T03:25:42;21.20;;;12.85;;
74957;SDS011;63741;42.624;26.276;2024-03-08T03:28:09;19.00;;;12.40;;
74957;SDS011;63741;42.624;26.276;2024-03-08T03:30:41;17.38;;;11.80;;
74957;SDS011;63741;42.624;26.276;2024-03-08T03:33:08;22.63;;;13.15;;
74957;SDS011;63741;42.624;26.276;2024-03-08T03:35:36;19.55;;;12.95;;
74957;SDS011;63741;42.624;26.276;2024-03-08T03:38:04;23.40;;;14.27;;
74957;SDS011;63741;42.624;26.276;2024-03-08T03:40:31;34.83;;;21.65;;
74957;SDS011;63741;42.624;26.276;2024-03-08T03:43:01;33.50;;;22.05;;
74957;SDS011;63741;42.624;26.276;2024-03-08T03:45:30;33.70;;;21.50;;
74957;SDS011;63741;42.624;26.276;2024-03-08T03:48:06;27.08;;;16.88;;
74957;SDS011;63741;42.624;26.276;2024-03-08T03:50:37;26.33;;;15.45;;
74957;SDS011;63741;42.624;26.276;2024-03-08T03:53:05;25.20;;;16.58;;
74957;SDS011;63741;42.624;26.276;2024-03-08T03:55:36;23.90;;;15.63;;
74957;SDS011;63741;42.624;26.276;2024-03-08T03:58:07;26.65;;;15.48;;
74957;SDS011;63741;42.624;26.276;2024-03-08T04:00:34;26.77;;;15.73;;
74957;SDS011;63741;42.624;26.276;2024-03-08T04:03:01;25.42;;;14.48;;
74957;SDS011;63741;42.624;26.276;2024-03-08T04:05:28;20.75;;;13.07;;
74957;SDS011;63741;42.624;26.276;2024-03-08T04:07:55;21.20;;;13.95;;
74957;SDS011;63741;42.624;26.276;2024-03-08T04:10:23;18.67;;;13.20;;
74957;SDS011;63741;42.624;26.276;2024-03-08T04:12:50;19.63;;;12.20;;
74957;SDS011;63741;42.624;26.276;2024-03-08T04:15:17;19.70;;;13.02;;
74957;SDS011;63741;42.624;26.276;2024-03-08T04:17:44;20.33;;;12.75;;
74957;SDS011;63741;42.624;26.276;2024-03-08T04:20:13;20.55;;;12.63;;
74957;SDS011;63741;42.624;26.276;2024-03-08T04:22:41;19.92;;;13.07;;
74957;SDS011;63741;42.624;26.276;2024-03-08T04:25:09;20.52;;;13.13;;
74957;SDS011;63741;42.624;26.276;2024-03-08T04:27:36;22.35;;;14.07;;
74957;SDS011;63741;42.624;26.276;2024-03-08T04:30:05;22.13;;;13.75;;
74957;SDS011;63741;42.624;26.276;2024-03-08T04:32:34;20.23;;;13.95;;
74957;SDS011;63741;42.624;26.276;2024-03-08T04:35:02;21.40;;;13.73;;
74957;SDS011;63741;42.624;26.276;2024-03-08T04:37:31;19.75;;;12.82;;
74957;SDS011;63741;42.624;26.276;2024-03-08T04:39:58;19.60;;;13.13;;
74957;SDS011;63741;42.624;26.276;2024-03-08T04:42:28;18.70;;;12.60;;
74957;SDS011;63741;42.624;26.276;2024-03-08T04:44:56;18.88;;;12.93;;
74957;SDS011;63741;42.624;26.276;2024-03-08T04:47:24;19.25;;;12.35;;
74957;SDS011;63741;42.624;26.276;2024-03-08T04:49:52;19.02;;;11.20;;
74957;SDS011;63741;42.624;26.276;2024-03-08T04:52:19;23.10;;;13.20;;
74957;SDS011;63741;42.624;26.276;2024-03-08T04:54:48;19.33;;;11.90;;
74957;SDS011;63741;42.624;26.276;2024-03-08T04:57:15;19.85;;;11.85;;
74957;SDS011;63741;42.624;26.276;2024-03-08T04:59:45;18.40;;;11.93;;
74957;SDS011;63741;42.624;26.276;2024-03-08T05:02:12;18.92;;;12.32;;
74957;SDS011;63741;42.624;26.276;2024-03-08T05:04:39;18.75;;;11.45;;
74957;SDS011;63741;42.624;26.276;2024-03-08T05:07:06;22.60;;;13.20;;
74957;SDS011;63741;42.624;26.276;2024-03-08T05:09:34;19.33;;;12.43;;
74957;SDS011;63741;42.624;26.276;2024-03-08T05:12:02;22.10;;;12.93;;
74957;SDS011;63741;42.624;26.276;2024-03-08T05:14:30;20.35;;;12.40;;
74957;SDS011;63741;42.624;26.276;2024-03-08T05:16:57;22.23;;;13.45;;
74957;SDS011;63741;42.624;26.276;2024-03-08T05:19:24;20.90;;;13.35;;
74957;SDS011;63741;42.624;26.276;2024-03-08T05:21:51;19.40;;;12.48;;
74957;SDS011;63741;42.624;26.276;2024-03-08T05:24:18;22.05;;;14.90;;
74957;SDS011;63741;42.624;26.276;2024-03-08T05:26:45;23.38;;;13.93;;
74957;SDS011;63741;42.624;26.276;2024-03-08T05:29:14;22.58;;;14.23;;
74957;SDS011;63741;42.624;26.276;2024-03-08T05:31:49;20.13;;;13.35;;
74957;SDS011;63741;42.624;26.276;2024-03-08T05:34:19;20.63;;;12.80;;
74957;SDS011;63741;42.624;26.276;2024-03-08T05:36:48;20.13;;;12.95;;
74957;SDS011;63741;42.624;26.276;2024-03-08T05:39:18;19.45;;;12.35;;
74957;SDS011;63741;42.624;26.276;2024-03-08T05:41:49;18.48;;;11.70;;
74957;SDS011;63741;42.624;26.276;2024-03-08T05:44:17;22.33;;;12.63;;
74957;SDS011;63741;42.624;26.276;2024-03-08T05:46:44;18.50;;;11.80;;
74957;SDS011;63741;42.624;26.276;2024-03-08T05:49:13;19.98;;;11.68;;
74957;SDS011;63741;42.624;26.276;2024-03-08T05:51:41;20.77;;;11.85;;
74957;SDS011;63741;42.624;26.276;2024-03-08T05:54:09;19.35;;;12.05;;
74957;SDS011;63741;42.624;26.276;2024-03-08T05:56:38;19.50;;;12.60;;
74957;SDS011;63741;42.624;26.276;2024-03-08T05:59:10;20.52;;;12.65;;
74957;SDS011;63741;42.624;26.276;2024-03-08T06:01:38;18.85;;;12.15;;
74957;SDS011;63741;42.624;26.276;2024-03-08T06:04:08;19.65;;;11.20;;
74957;SDS011;63741;42.624;26.276;2024-03-08T06:06:36;19.35;;;11.40;;
74957;SDS011;63741;42.624;26.276;2024-03-08T06:09:04;18.45;;;11.88;;
74957;SDS011;63741;42.624;26.276;2024-03-08T06:11:44;20.02;;;11.50;;
74957;SDS011;63741;42.624;26.276;2024-03-08T06:14:11;17.52;;;11.15;;
74957;SDS011;63741;42.624;26.276;2024-03-08T06:16:39;17.50;;;11.05;;
74957;SDS011;63741;42.624;26.276;2024-03-08T06:19:05;18.73;;;11.73;;
74957;SDS011;63741;42.624;26.276;2024-03-08T06:21:32;21.05;;;12.52;;
74957;SDS011;63741;42.624;26.276;2024-03-08T06:23:59;22.52;;;16.77;;
74957;SDS011;63741;42.624;26.276;2024-03-08T06:26:27;21.50;;;12.98;;
74957;SDS011;63741;42.624;26.276;2024-03-08T06:28:56;18.52;;;11.50;;
74957;SDS011;63741;42.624;26.276;2024-03-08T06:31:24;19.33;;;12.27;;
74957;SDS011;63741;42.624;26.276;2024-03-08T06:33:51;19.60;;;11.95;;
74957;SDS011;63741;42.624;26.276;2024-03-08T06:36:22;18.10;;;12.55;;
74957;SDS011;63741;42.624;26.276;2024-03-08T06:38:49;21.38;;;12.90;;
74957;SDS011;63741;42.624;26.276;2024-03-08T06:41:17;17.92;;;10.90;;
74957;SDS011;63741;42.624;26.276;2024-03-08T06:43:44;18.83;;;10.93;;
74957;SDS011;63741;42.624;26.276;2024-03-08T06:46:16;17.35;;;10.75;;
74957;SDS011;63741;42.624;26.276;2024-03-08T06:48:44;17.15;;;10.90;;
74957;SDS011;63741;42.624;26.276;2024-03-08T06:51:12;28.10;;;16.70;;
74957;SDS011;63741;42.624;26.276;2024-03-08T06:53:41;15.90;;;11.40;;
74957;SDS011;63741;42.624;26.276;2024-03-08T06:56:08;19.02;;;12.43;;
74957;SDS011;63741;42.624;26.276;2024-03-08T06:58:35;24.13;;;14.55;;
74957;SDS011;63741;42.624;26.276;2024-03-08T07:01:02;22.70;;;13.40;;
74957;SDS011;63741;42.624;26.276;2024-03-08T07:03:34;23.17;;;13.05;;
74957;SDS011;63741;42.624;26.276;2024-03-08T07:06:01;19.48;;;11.13;;
74957;SDS011;63741;42.624;26.276;2024-03-08T07:08:30;17.50;;;10.80;;
74957;SDS011;63741;42.624;26.276;2024-03-08T07:10:57;17.08;;;10.35;;
74957;SDS011;63741;42.624;26.276;2024-03-08T07:13:26;15.38;;;10.13;;
74957;SDS011;63741;42.624;26.276;2024-03-08T07:15:56;15.93;;;10.55;;
74957;SDS011;63741;42.624;26.276;2024-03-08T07:18:25;17.17;;;10.23;;
74957;SDS011;63741;42.624;26.276;2024-03-08T07:20:53;18.10;;;11.98;;
74957;SDS011;63741;42.624;26.276;2024-03-08T07:23:20;18.27;;;11.77;;
74957;SDS011;63741;42.624;26.276;2024-03-08T07:26:05;18.33;;;12.65;;
74957;SDS011;63741;42.624;26.276;2024-03-08T07:28:32;17.83;;;11.05;;
74957;SDS011;63741;42.624;26.276;2024-03-08T07:30:59;16.13;;;10.73;;
74957;SDS011;63741;42.624;26.276;2024-03-08T07:36:17;17.25;;;9.48;;
74957;SDS011;63741;42.624;26.276;2024-03-08T07:38:44;16.27;;;10.02;;
74957;SDS011;63741;42.624;26.276;2024-03-08T07:41:17;16.65;;;10.93;;
74957;SDS011;63741;42.624;26.276;2024-03-08T07:43:44;16.88;;;10.63;;
74957;SDS011;63741;42.624;26.276;2024-03-08T07:46:11;16.13;;;10.60;;
74957;SDS011;63741;42.624;26.276;2024-03-08T07:48:39;20.52;;;12.52;;
74957;SDS011;63741;42.624;26.276;2024-03-08T07:51:07;19.95;;;12.45;;
74957;SDS011;63741;42.624;26.276;2024-03-08T07:53:36;19.77;;;13.90;;
74957;SDS011;63741;42.624;26.276;2024-03-08T07:56:04;30.27;;;21.27;;
74957;SDS011;63741;42.624;26.276;2024-03-08T07:58:32;23.38;;;15.90;;
74957;SDS011;63741;42.624;26.276;2024-03-08T08:01:01;16.33;;;11.10;;
74957;SDS011;63741;42.624;26.276;2024-03-08T08:03:28;14.32;;;10.10;;
74957;SDS011;63741;42.624;26.276;2024-03-08T08:05:55;15.95;;;10.63;;
74957;SDS011;63741;42.624;26.276;2024-03-08T08:08:22;19.98;;;13.15;;
74957;SDS011;63741;42.624;26.276;2024-03-08T08:10:49;25.85;;;15.25;;
74957;SDS011;63741;42.624;26.276;2024-03-08T08:13:16;18.25;;;11.30;;
74957;SDS011;63741;42.624;26.276;2024-03-08T08:15:44;18.33;;;9.75;;
74957;SDS011;63741;42.624;26.276;2024-03-08T08:18:12;15.55;;;9.80;;
74957;SDS011;63741;42.624;26.276;2024-03-08T08:20:40;16.40;;;10.50;;
74957;SDS011;63741;42.624;26.276;2024-03-08T08:23:07;29.05;;;18.58;;
74957;SDS011;63741;42.624;26.276;2024-03-08T08:25:35;16.83;;;11.07;;
74957;SDS011;63741;42.624;26.276;2024-03-08T08:28:02;18.35;;;11.65;;
74957;SDS011;63741;42.624;26.276;2024-03-08T08:30:30;27.63;;;20.58;;
74957;SDS011;63741;42.624;26.276;2024-03-08T08:32:59;23.13;;;17.23;;
74957;SDS011;63741;42.624;26.276;2024-03-08T08:35:27;20.08;;;15.57;;
74957;SDS011;63741;42.624;26.276;2024-03-08T08:37:55;17.33;;;11.98;;
74957;SDS011;63741;42.624;26.276;2024-03-08T08:40:22;16.02;;;9.20;;
74957;SDS011;63741;42.624;26.276;2024-03-08T08:42:51;17.33;;;9.27;;
74957;SDS011;63741;42.624;26.276;2024-03-08T08:45:19;14.20;;;8.68;;
74957;SDS011;63741;42.624;26.276;2024-03-08T08:47:52;14.27;;;8.15;;
74957;SDS011;63741;42.624;26.276;2024-03-08T08:50:19;13.77;;;8.10;;
74957;SDS011;63741;42.624;26.276;2024-03-08T08:52:50;14.15;;;8.45;;
74957;SDS011;63741;42.624;26.276;2024-03-08T08:55:17;13.07;;;7.60;;
74957;SDS011;63741;42.624;26.276;2024-03-08T08:57:47;12.55;;;8.95;;
74957;SDS011;63741;42.624;26.276;2024-03-08T09:00:15;16.73;;;8.30;;
74957;SDS011;63741;42.624;26.276;2024-03-08T09:02:43;13.43;;;7.30;;
74957;SDS011;63741;42.624;26.276;2024-03-08T09:05:10;12.15;;;7.28;;
74957;SDS011;63741;42.624;26.276;2024-03-08T09:07:38;9.30;;;6.22;;
74957;SDS011;63741;42.624;26.276;2024-03-08T09:10:05;9.45;;;5.60;;
74957;SDS011;63741;42.624;26.276;2024-03-08T09:12:43;9.27;;;5.80;;
74957;SDS011;63741;42.624;26.276;2024-03-08T09:15:10;9.88;;;6.70;;
74957;SDS011;63741;42.624;26.276;2024-03-08T09:17:39;10.05;;;6.82;;
74957;SDS011;63741;42.624;26.276;2024-03-08T09:20:06;12.77;;;7.15;;
74957;SDS011;63741;42.624;26.276;2024-03-08T09:22:35;10.60;;;7.10;;
74957;SDS011;63741;42.624;26.276;2024-03-08T09:25:02;10.85;;;7.00;;
74957;SDS011;63741;42.624;26.276;2024-03-08T09:27:32;12.63;;;8.40;;
74957;SDS011;63741;42.624;26.276;2024-03-08T09:30:04;18.45;;;12.45;;
74957;SDS011;63741;42.624;26.276;2024-03-08T09:32:34;14.48;;;9.68;;
74957;SDS011;63741;42.624;26.276;2024-03-08T09:35:01;9.48;;;6.60;;
74957;SDS011;63741;42.624;26.276;2024-03-08T09:37:28;11.65;;;7.25;;
74957;SDS011;63741;42.624;26.276;2024-03-08T09:39:56;12.57;;;7.93;;
74957;SDS011;63741;42.624;26.276;2024-03-08T09:42:23;10.73;;;6.75;;
74957;SDS011;63741;42.624;26.276;2024-03-08T09:44:50;11.50;;;7.25;;
74957;SDS011;63741;42.624;26.276;2024-03-08T09:47:17;9.73;;;6.82;;
74957;SDS011;63741;42.624;26.276;2024-03-08T09:49:44;12.23;;;7.57;;
74957;SDS011;63741;42.624;26.276;2024-03-08T09:52:12;10.63;;;7.30;;
74957;SDS011;63741;42.624;26.276;2024-03-08T09:54:41;10.30;;;6.60;;
74957;SDS011;63741;42.624;26.276;2024-03-08T09:57:10;9.85;;;6.60;;
74957;SDS011;63741;42.624;26.276;2024-03-08T09:59:37;9.70;;;6.30;;
74957;SDS011;63741;42.624;26.276;2024-03-08T10:02:04;11.35;;;6.55;;
74957;SDS011;63741;42.624;26.276;2024-03-08T10:04:32;11.23;;;7.15;;
74957;SDS011;63741;42.624;26.276;2024-03-08T10:07:00;10.73;;;7.18;;
74957;SDS011;63741;42.624;26.276;2024-03-08T10:09:28;12.45;;;6.55;;
74957;SDS011;63741;42.624;26.276;2024-03-08T10:11:58;9.60;;;6.35;;
74957;SDS011;63741;42.624;26.276;2024-03-08T10:14:25;9.18;;;5.80;;
74957;SDS011;63741;42.624;26.276;2024-03-08T10:16:53;10.80;;;6.70;;
74957;SDS011;63741;42.624;26.276;2024-03-08T10:19:20;9.45;;;6.35;;
74957;SDS011;63741;42.624;26.276;2024-03-08T10:21:52;12.80;;;7.85;;
74957;SDS011;63741;42.624;26.276;2024-03-08T10:24:23;12.90;;;7.55;;
74957;SDS011;63741;42.624;26.276;2024-03-08T10:26:58;24.02;;;13.02;;
74957;SDS011;63741;42.624;26.276;2024-03-08T10:29:31;19.30;;;9.88;;
74957;SDS011;63741;42.624;26.276;2024-03-08T10:31:59;14.38;;;8.15;;
74957;SDS011;63741;42.624;26.276;2024-03-08T10:34:26;12.52;;;7.90;;
74957;SDS011;63741;42.624;26.276;2024-03-08T10:36:53;14.50;;;8.63;;
74957;SDS011;63741;42.624;26.276;2024-03-08T10:39:27;18.88;;;11.00;;
74957;SDS011;63741;42.624;26.276;2024-03-08T10:42:04;16.80;;;9.18;;
74957;SDS011;63741;42.624;26.276;2024-03-08T10:47:18;10.18;;;6.80;;
74957;SDS011;63741;42.624;26.276;2024-03-08T10:49:54;18.73;;;10.75;;
74957;SDS011;63741;42.624;26.276;2024-03-08T10:52:31;15.65;;;8.18;;
74957;SDS011;63741;42.624;26.276;2024-03-08T10:54:59;9.82;;;6.30;;
74957;SDS011;63741;42.624;26.276;2024-03-08T10:57:28;14.15;;;8.70;;
74957;SDS011;63741;42.624;26.276;2024-03-08T10:59:55;29.33;;;15.32;;
74957;SDS011;63741;42.624;26.276;2024-03-08T11:02:25;71.68;;;33.88;;
74957;SDS011;63741;42.624;26.276;2024-03-08T11:04:54;14.32;;;7.57;;
74957;SDS011;63741;42.624;26.276;2024-03-08T11:07:23;12.05;;;6.53;;
74957;SDS011;63741;42.624;26.276;2024-03-08T11:09:54;12.07;;;7.38;;
74957;SDS011;63741;42.624;26.276;2024-03-08T11:14:58;13.63;;;8.13;;
74957;SDS011;63741;42.624;26.276;2024-03-08T11:19:55;10.98;;;6.75;;
74957;SDS011;63741;42.624;26.276;2024-03-08T11:22:25;16.35;;;9.57;;
74957;SDS011;63741;42.624;26.276;2024-03-08T11:25:04;9.80;;;6.70;;
74957;SDS011;63741;42.624;26.276;2024-03-08T11:27:37;9.95;;;6.85;;
74957;SDS011;63741;42.624;26.276;2024-03-08T11:30:07;10.38;;;7.40;;
74957;SDS011;63741;42.624;26.276;2024-03-08T11:32:44;10.00;;;6.93;;
74957;SDS011;63741;42.624;26.276;2024-03-08T11:35:20;11.55;;;6.68;;
74957;SDS011;63741;42.624;26.276;2024-03-08T11:37:50;11.07;;;6.65;;
74957;SDS011;63741;42.624;26.276;2024-03-08T11:40:17;12.40;;;6.82;;
74957;SDS011;63741;42.624;26.276;2024-03-08T11:42:47;12.35;;;7.25;;
74957;SDS011;63741;42.624;26.276;2024-03-08T11:45:15;12.35;;;7.95;;
74957;SDS011;63741;42.624;26.276;2024-03-08T11:47:44;12.43;;;7.85;;
74957;SDS011;63741;42.624;26.276;2024-03-08T11:52:46;19.80;;;11.38;;
74957;SDS011;63741;42.624;26.276;2024-03-08T11:55:13;10.60;;;7.07;;
74957;SDS011;63741;42.624;26.276;2024-03-08T11:57:41;13.73;;;8.25;;
74957;SDS011;63741;42.624;26.276;2024-03-08T12:00:15;12.93;;;7.80;;
74957;SDS011;63741;42.624;26.276;2024-03-08T12:03:03;10.45;;;7.03;;
74957;SDS011;63741;42.624;26.276;2024-03-08T12:05:31;15.30;;;9.00;;
74957;SDS011;63741;42.624;26.276;2024-03-08T12:08:00;11.20;;;7.82;;
74957;SDS011;63741;42.624;26.276;2024-03-08T12:10:29;12.63;;;8.45;;
74957;SDS011;63741;42.624;26.276;2024-03-08T12:12:59;18.45;;;11.85;;
74957;SDS011;63741;42.624;26.276;2024-03-08T12:15:27;14.40;;;9.13;;
74957;SDS011;63741;42.624;26.276;2024-03-08T12:17:55;19.08;;;11.73;;
74957;SDS011;63741;42.624;26.276;2024-03-08T12:20:26;13.85;;;9.55;;
74957;SDS011;63741;42.624;26.276;2024-03-08T12:22:57;13.88;;;9.60;;
74957;SDS011;63741;42.624;26.276;2024-03-08T12:25:26;16.25;;;11.00;;
74957;SDS011;63741;42.624;26.276;2024-03-08T12:27:54;16.30;;;10.82;;
74957;SDS011;63741;42.624;26.276;2024-03-08T12:30:23;13.88;;;9.65;;
74957;SDS011;63741;42.624;26.276;2024-03-08T12:32:54;14.07;;;9.68;;
74957;SDS011;63741;42.624;26.276;2024-03-08T12:35:24;13.52;;;9.38;;
74957;SDS011;63741;42.624;26.276;2024-03-08T12:37:53;11.35;;;8.05;;
74957;SDS011;63741;42.624;26.276;2024-03-08T12:40:26;8.73;;;6.15;;
74957;SDS011;63741;42.624;26.276;2024-03-08T12:42:55;9.30;;;5.95;;
74957;SDS011;63741;42.624;26.276;2024-03-08T12:45:23;7.35;;;4.93;;
74957;SDS011;63741;42.624;26.276;2024-03-08T12:47:51;9.45;;;5.05;;
74957;SDS011;63741;42.624;26.276;2024-03-08T12:50:20;11.27;;;5.88;;
74957;SDS011;63741;42.624;26.276;2024-03-08T12:52:51;12.88;;;8.00;;
74957;SDS011;63741;42.624;26.276;2024-03-08T12:55:19;18.98;;;10.60;;
74957;SDS011;63741;42.624;26.276;2024-03-08T12:57:46;27.50;;;13.77;;
74957;SDS011;63741;42.624;26.276;2024-03-08T13:00:15;12.63;;;8.35;;
74957;SDS011;63741;42.624;26.276;2024-03-08T13:02:46;18.35;;;11.45;;
74957;SDS011;63741;42.624;26.276;2024-03-08T13:05:14;11.13;;;7.05;;
74957;SDS011;63741;42.624;26.276;2024-03-08T13:07:41;13.75;;;10.13;;
74957;SDS011;63741;42.624;26.276;2024-03-08T13:10:13;10.25;;;6.72;;
74957;SDS011;63741;42.624;26.276;2024-03-08T13:12:42;12.85;;;8.48;;
74957;SDS011;63741;42.624;26.276;2024-03-08T13:15:09;10.77;;;7.22;;
74957;SDS011;63741;42.624;26.276;2024-03-08T13:17:56;11.20;;;7.45;;
74957;SDS011;63741;42.624;26.276;2024-03-08T13:20:26;13.63;;;7.75;;
74957;SDS011;63741;42.624;26.276;2024-03-08T13:23:05;11.68;;;7.03;;
74957;SDS011;63741;42.624;26.276;2024-03-08T13:25:35;10.43;;;6.75;;
74957;SDS011;63741;42.624;26.276;2024-03-08T13:28:05;11.23;;;7.75;;
74957;SDS011;63741;42.624;26.276;2024-03-08T13:30:33;10.32;;;7.22;;
74957;SDS011;63741;42.624;26.276;2024-03-08T13:33:00;11.60;;;7.53;;
74957;SDS011;63741;42.624;26.276;2024-03-08T13:35:27;10.48;;;7.28;;
74957;SDS011;63741;42.624;26.276;2024-03-08T13:37:57;10.55;;;7.00;;
74957;SDS011;63741;42.624;26.276;2024-03-08T13:40:24;10.95;;;6.70;;
74957;SDS011;63741;42.624;26.276;2024-03-08T13:42:51;9.88;;;7.75;;
74957;SDS011;63741;42.624;26.276;2024-03-08T13:45:18;10.98;;;7.15;;
74957;SDS011;63741;42.624;26.276;2024-03-08T13:47:49;9.68;;;7.07;;
74957;SDS011;63741;42.624;26.276;2024-03-08T13:50:20;10.27;;;6.38;;
74957;SDS011;63741;42.624;26.276;2024-03-08T13:52:49;9.82;;;6.93;;
74957;SDS011;63741;42.624;26.276;2024-03-08T13:55:22;9.45;;;5.93;;
74957;SDS011;63741;42.624;26.276;2024-03-08T13:57:52;9.60;;;5.82;;
74957;SDS011;63741;42.624;26.276;2024-03-08T14:00:20;9.35;;;6.03;;
74957;SDS011;63741;42.624;26.276;2024-03-08T14:02:52;8.43;;;5.65;;
74957;SDS011;63741;42.624;26.276;2024-03-08T14:05:20;8.63;;;5.78;;
74957;SDS011;63741;42.624;26.276;2024-03-08T14:07:48;7.53;;;5.40;;
74957;SDS011;63741;42.624;26.276;2024-03-08T14:10:16;9.70;;;5.97;;
74957;SDS011;63741;42.624;26.276;2024-03-08T14:12:47;9.30;;;6.50;;
74957;SDS011;63741;42.624;26.276;2024-03-08T14:15:17;9.27;;;6.18;;
74957;SDS011;63741;42.624;26.276;2024-03-08T14:17:44;13.02;;;6.95;;
74957;SDS011;63741;42.624;26.276;2024-03-08T14:20:13;12.60;;;8.27;;
74957;SDS011;63741;42.624;26.276;2024-03-08T14:22:41;16.95;;;10.55;;
74957;SDS011;63741;42.624;26.276;2024-03-08T14:25:08;15.18;;;10.57;;
74957;SDS011;63741;42.624;26.276;2024-03-08T14:27:44;18.63;;;11.57;;
74957;SDS011;63741;42.624;26.276;2024-03-08T14:30:12;19.50;;;11.20;;
74957;SDS011;63741;42.624;26.276;2024-03-08T14:32:40;18.15;;;12.13;;
74957;SDS011;63741;42.624;26.276;2024-03-08T14:35:08;18.40;;;12.23;;
74957;SDS011;63741;42.624;26.276;2024-03-08T14:37:37;18.92;;;11.75;;